Time;durP1;ratioP1;P1;durP2;ratioP2;P2;SDS_P1;SDS_P2;PMS_P1;PMS_P2;Temp;Humidity;BMP_temperature;BMP_pressure;BME280_temperature;BME280_humidity;BME280_pressure;Samples;Min_cycle;Max_cycle;Signal;HPM_P1;HPM_P2
2024/01/09 00:00:44;;;;;;;9.35;4.15;;;-1.70;99.90;;;;;;5032373;28;20303;-78
2024/01/09 00:03:09;;;;;;;6.77;4.27;;;-1.70;99.90;;;;;;5036255;28;20658;-77
2024/01/09 00:05:35;;;;;;;5.47;3.20;;;-1.80;99.90;;;;;;5014151;28;20161;-78
2024/01/09 00:08:01;;;;;;;5.00;3.10;;;-1.80;99.90;;;;;;5030091;28;20543;-77
2024/01/09 00:10:26;;;;;;;5.63;3.43;;;-1.80;99.90;;;;;;5033741;28;20227;-78
2024/01/09 00:12:52;;;;;;;4.10;3.40;;;-1.80;99.90;;;;;;5015531;28;20269;-78
2024/01/09 00:15:18;;;;;;;3.80;2.80;;;-1.80;99.90;;;;;;5015449;28;20177;-78
2024/01/09 00:17:44;;;;;;;6.45;3.35;;;-1.80;99.90;;;;;;5015049;28;20205;-78
2024/01/09 00:20:10;;;;;;;6.40;4.77;;;-1.80;99.90;;;;;;5015317;28;20201;-78
2024/01/09 00:22:36;;;;;;;4.43;3.85;;;-1.80;99.90;;;;;;5015371;28;20220;-78
2024/01/09 00:25:02;;;;;;;6.00;4.03;;;-1.90;99.90;;;;;;5015134;28;20587;-78
2024/01/09 00:27:27;;;;;;;5.00;3.93;;;-1.90;99.90;;;;;;4998998;28;20200;-78
2024/01/09 00:29:53;;;;;;;5.67;4.30;;;-1.90;99.90;;;;;;5015035;28;20177;-78
2024/01/09 00:32:19;;;;;;;4.57;3.70;;;-1.90;99.90;;;;;;4999243;28;20186;-78
2024/01/09 00:34:44;;;;;;;9.10;5.10;;;-1.90;99.90;;;;;;5032668;28;20192;-78
2024/01/09 00:37:11;;;;;;;8.37;4.60;;;-1.90;99.90;;;;;;5015168;28;20676;-78
2024/01/09 00:39:37;;;;;;;5.97;4.10;;;-1.90;99.90;;;;;;5018201;28;20209;-78
2024/01/09 00:42:03;;;;;;;7.37;4.30;;;-2.00;99.90;;;;;;5033150;28;20185;-78
2024/01/09 00:44:29;;;;;;;7.07;4.50;;;-1.90;99.90;;;;;;5015200;28;20178;-78
2024/01/09 00:46:54;;;;;;;5.87;4.07;;;-1.90;99.90;;;;;;5010010;28;20212;-77
2024/01/09 00:49:20;;;;;;;8.17;4.20;;;-1.90;99.90;;;;;;5034083;28;21125;-78
2024/01/09 00:51:46;;;;;;;7.80;5.27;;;-2.00;99.90;;;;;;5034611;28;20548;-78
2024/01/09 00:54:11;;;;;;;9.80;5.80;;;-2.00;99.90;;;;;;5052521;28;20514;-78
2024/01/09 00:56:37;;;;;;;7.03;4.77;;;-2.00;99.90;;;;;;5044133;28;20201;-77
2024/01/09 00:59:03;;;;;;;6.90;4.17;;;-2.00;99.90;;;;;;5052132;28;20181;-77
2024/01/09 01:01:28;;;;;;;11.97;5.60;;;-2.00;99.90;;;;;;5034728;28;20698;-77
2024/01/09 01:03:54;;;;;;;10.27;5.40;;;-2.00;99.90;;;;;;5030885;28;20197;-77
2024/01/09 01:06:20;;;;;;;8.60;4.83;;;-2.00;99.90;;;;;;5029276;28;20193;-77
2024/01/09 01:08:45;;;;;;;8.53;4.77;;;-2.00;99.90;;;;;;5051757;28;20177;-77
2024/01/09 01:11:11;;;;;;;6.50;4.33;;;-2.00;99.90;;;;;;5034359;28;20196;-78
2024/01/09 01:13:37;;;;;;;8.57;4.77;;;-2.00;99.90;;;;;;5034174;28;20196;-78
2024/01/09 01:16:02;;;;;;;9.40;5.50;;;-2.00;99.90;;;;;;5056183;28;20622;-77
2024/01/09 01:18:28;;;;;;;8.60;5.00;;;-2.00;99.90;;;;;;5051735;28;20180;-77
2024/01/09 01:20:54;;;;;;;11.30;5.07;;;-2.00;99.90;;;;;;5033279;28;20243;-78
2024/01/09 01:23:20;;;;;;;6.20;4.60;;;-2.00;99.90;;;;;;5017743;28;20204;-78
2024/01/09 01:25:45;;;;;;;6.57;4.40;;;-2.00;99.90;;;;;;5033903;28;21137;-78
2024/01/09 01:28:11;;;;;;;5.00;3.60;;;-2.10;99.90;;;;;;5033231;28;20201;-77
2024/01/09 01:30:37;;;;;;;4.83;3.50;;;-2.10;99.90;;;;;;5017885;28;20230;-77
2024/01/09 01:33:03;;;;;;;7.03;4.37;;;-2.10;99.90;;;;;;5017632;28;20651;-77
2024/01/09 01:35:29;;;;;;;5.40;3.67;;;-2.10;99.90;;;;;;5051825;28;20177;-77
2024/01/09 01:37:55;;;;;;;6.33;3.33;;;-2.10;99.90;;;;;;5032993;28;20196;-77
2024/01/09 01:40:21;;;;;;;4.63;3.23;;;-2.10;99.90;;;;;;5051850;28;20725;-77
2024/01/09 01:42:46;;;;;;;4.27;3.20;;;-2.10;99.90;;;;;;5033971;28;20579;-78
2024/01/09 01:45:21;;;;;;;4.50;3.47;;;-2.10;99.90;;;;;;5051693;28;20260;-78
2024/01/09 01:47:47;;;;;;;6.13;3.35;;;-2.10;99.90;;;;;;5050587;28;20568;-78
2024/01/09 01:50:14;;;;;;;5.82;3.80;;;-2.10;99.90;;;;;;5051738;28;20617;-77
2024/01/09 01:52:41;;;;;;;5.82;4.18;;;-2.10;99.90;;;;;;5009094;28;20182;-77
2024/01/09 01:55:09;;;;;;;5.05;3.90;;;-2.10;99.90;;;;;;5016502;28;20308;-78
2024/01/09 01:57:37;;;;;;;4.80;3.75;;;-2.20;99.90;;;;;;5013587;28;20193;-77
2024/01/09 02:00:03;;;;;;;5.43;2.83;;;-2.20;99.90;;;;;;5013181;28;20201;-77
2024/01/09 02:02:37;;;;;;;5.10;3.58;;;-2.20;99.90;;;;;;5013583;28;20169;-78
2024/01/09 02:05:03;;;;;;;4.95;2.90;;;-2.20;99.90;;;;;;5025799;28;20708;-77
2024/01/09 02:07:33;;;;;;;6.13;3.90;;;-2.20;99.90;;;;;;5017308;28;20213;-77
2024/01/09 02:09:58;;;;;;;4.40;3.05;;;-2.20;99.90;;;;;;5030667;28;20236;-77
2024/01/09 02:12:24;;;;;;;4.73;3.53;;;-2.20;99.90;;;;;;5021745;28;20181;-77
2024/01/09 02:14:50;;;;;;;7.00;3.53;;;-2.20;99.90;;;;;;5021330;28;20599;-77
2024/01/09 02:17:15;;;;;;;4.67;3.53;;;-2.20;99.90;;;;;;5030644;28;20193;-77
2024/01/09 02:19:41;;;;;;;5.30;3.30;;;-2.30;99.90;;;;;;4995995;28;20216;-77
2024/01/09 02:22:07;;;;;;;4.73;3.40;;;-2.30;99.90;;;;;;5031080;28;20231;-77
2024/01/09 02:24:32;;;;;;;5.07;3.80;;;-2.30;99.90;;;;;;5030880;28;20173;-79
2024/01/09 02:27:19;;;;;;;5.18;3.47;;;-2.30;99.90;;;;;;5021223;28;20632;-79
2024/01/09 02:29:49;;;;;;;5.25;3.33;;;-2.30;99.90;;;;;;4996596;28;20272;-79
2024/01/09 02:32:16;;;;;;;5.55;3.67;;;-2.30;99.90;;;;;;5015959;28;20177;-76
2024/01/09 02:34:44;;;;;;;5.90;4.00;;;-2.30;99.90;;;;;;5012668;28;20530;-77
2024/01/09 02:37:10;;;;;;;7.70;4.07;;;-2.30;99.90;;;;;;5025583;28;20207;-77
2024/01/09 02:39:36;;;;;;;4.78;3.67;;;-2.30;99.90;;;;;;5015679;28;20202;-77
2024/01/09 02:42:02;;;;;;;4.37;3.80;;;-2.30;99.90;;;;;;5029694;28;20221;-76
2024/01/09 02:44:28;;;;;;;8.07;3.55;;;-2.40;99.90;;;;;;5012776;28;20612;-76
2024/01/09 02:46:54;;;;;;;5.90;3.40;;;-2.40;99.90;;;;;;5033339;28;20289;-76
2024/01/09 02:49:19;;;;;;;6.03;3.37;;;-2.40;99.90;;;;;;5051833;28;20177;-77
2024/01/09 02:51:45;;;;;;;3.40;2.73;;;-2.40;99.90;;;;;;5052423;28;20183;-77
2024/01/09 02:54:11;;;;;;;4.67;3.60;;;-2.40;99.90;;;;;;5068944;28;20540;-77
2024/01/09 02:56:39;;;;;;;5.30;3.90;;;-2.40;99.90;;;;;;5052512;28;20226;-77
2024/01/09 02:59:05;;;;;;;5.93;3.75;;;-2.40;99.90;;;;;;5051717;28;20350;-77
2024/01/09 03:01:31;;;;;;;6.68;4.10;;;-2.40;99.90;;;;;;5044067;28;20681;-76
2024/01/09 03:03:57;;;;;;;5.47;4.25;;;-2.40;99.90;;;;;;5069846;28;20161;-76
2024/01/09 03:06:23;;;;;;;5.00;3.10;;;-2.40;99.90;;;;;;5035700;28;20215;-77
2024/01/09 03:08:48;;;;;;;6.00;3.70;;;-2.40;99.90;;;;;;5073602;28;20652;-76
2024/01/09 03:11:15;;;;;;;4.00;3.03;;;-2.40;99.90;;;;;;5035897;28;20172;-77
2024/01/09 03:13:40;;;;;;;4.75;4.05;;;-2.40;99.90;;;;;;5043851;28;20199;-77
2024/01/09 03:16:10;;;;;;;5.67;4.10;;;-2.50;99.90;;;;;;5052285;28;20177;-77
2024/01/09 03:18:36;;;;;;;6.53;3.70;;;-2.40;99.90;;;;;;5034790;28;20240;-77
2024/01/09 03:21:02;;;;;;;5.63;3.73;;;-2.40;99.90;;;;;;5052048;28;20695;-77
2024/01/09 03:23:28;;;;;;;4.90;3.03;;;-2.50;99.90;;;;;;5063395;28;20175;-77
2024/01/09 03:25:53;;;;;;;4.57;3.40;;;-2.50;99.90;;;;;;5050405;28;20636;-77
2024/01/09 03:28:19;;;;;;;5.23;4.03;;;-2.50;99.90;;;;;;5034470;28;20229;-78
2024/01/09 03:30:45;;;;;;;5.13;3.90;;;-2.50;99.90;;;;;;5051997;28;20203;-77
2024/01/09 03:33:11;;;;;;;4.37;3.53;;;-2.50;99.90;;;;;;5052137;28;20274;-77
2024/01/09 03:35:36;;;;;;;5.13;3.80;;;-2.50;99.90;;;;;;5062120;28;20188;-77
2024/01/09 03:38:02;;;;;;;7.70;3.70;;;-2.50;99.90;;;;;;5050331;28;20196;-77
2024/01/09 03:40:28;;;;;;;4.70;3.60;;;-2.50;99.90;;;;;;5069994;28;20228;-77
2024/01/09 03:42:54;;;;;;;5.70;3.40;;;-2.50;99.90;;;;;;5052969;28;20594;-77
2024/01/09 03:45:20;;;;;;;5.18;3.90;;;-2.50;99.90;;;;;;5077396;28;20579;-77
2024/01/09 03:47:46;;;;;;;8.70;4.60;;;-2.50;99.90;;;;;;5064820;28;20228;-77
2024/01/09 03:50:11;;;;;;;5.27;3.23;;;-2.50;99.90;;;;;;5073388;28;20589;-77
2024/01/09 03:52:37;;;;;;;5.60;3.70;;;-2.50;99.90;;;;;;5038916;28;20658;-77
2024/01/09 03:55:03;;;;;;;5.10;3.30;;;-2.60;99.90;;;;;;5073437;28;20180;-77
2024/01/09 03:57:29;;;;;;;5.80;4.18;;;-2.60;99.90;;;;;;5039032;28;20575;-77
2024/01/09 03:59:54;;;;;;;5.40;3.70;;;-2.60;99.90;;;;;;5046634;28;20227;-77
2024/01/09 04:02:20;;;;;;;4.60;3.93;;;-2.60;99.90;;;;;;5073386;28;20176;-77
2024/01/09 04:04:46;;;;;;;4.90;3.47;;;-2.70;99.90;;;;;;5054281;28;20171;-77
2024/01/09 04:07:11;;;;;;;5.47;3.70;;;-2.70;99.90;;;;;;5038574;28;20192;-77
2024/01/09 04:09:37;;;;;;;5.90;4.10;;;-2.70;99.90;;;;;;5065093;28;20184;-77
2024/01/09 04:12:03;;;;;;;6.70;4.00;;;-2.70;99.90;;;;;;5038154;28;20180;-77
2024/01/09 04:14:29;;;;;;;13.60;3.72;;;-2.70;99.90;;;;;;5055197;28;20924;-77
2024/01/09 04:16:56;;;;;;;4.63;3.40;;;-2.70;99.90;;;;;;5073108;28;20203;-76
2024/01/09 04:19:22;;;;;;;6.70;4.00;;;-2.70;99.90;;;;;;5054350;28;20657;-77
2024/01/09 04:21:48;;;;;;;5.23;3.73;;;-2.80;99.90;;;;;;5049719;28;20181;-77
2024/01/09 04:24:13;;;;;;;4.63;3.42;;;-2.80;99.90;;;;;;5075440;28;20605;-76
2024/01/09 04:26:39;;;;;;;4.43;3.40;;;-2.80;99.90;;;;;;5072992;28;20228;-77
2024/01/09 04:29:05;;;;;;;4.20;3.03;;;-2.80;99.90;;;;;;5054076;28;20574;-76
2024/01/09 04:31:31;;;;;;;5.37;4.00;;;-2.80;99.90;;;;;;5042090;28;20651;-77
2024/01/09 04:33:56;;;;;;;4.43;3.63;;;-2.80;99.90;;;;;;5018442;28;20186;-77
2024/01/09 04:36:22;;;;;;;4.40;3.03;;;-2.80;99.90;;;;;;5054812;28;20669;-76
2024/01/09 04:38:48;;;;;;;5.80;3.63;;;-2.80;99.90;;;;;;5037413;28;20183;-76
2024/01/09 04:41:17;;;;;;;5.77;3.80;;;-2.80;99.90;;;;;;5037928;28;20729;-76
2024/01/09 04:43:47;;;;;;;5.68;4.75;;;-2.90;99.90;;;;;;5029905;28;20181;-76
2024/01/09 04:46:13;;;;;;;4.57;3.50;;;-2.90;99.90;;;;;;5039090;28;20207;-77
2024/01/09 04:48:39;;;;;;;7.82;3.95;;;-2.90;99.90;;;;;;5072047;28;20183;-77
2024/01/09 04:51:05;;;;;;;6.43;4.33;;;-2.90;99.90;;;;;;5046502;28;20180;-77
2024/01/09 04:53:30;;;;;;;4.97;4.13;;;-2.90;99.90;;;;;;5054804;28;20658;-77
2024/01/09 04:55:56;;;;;;;3.47;2.90;;;-2.90;99.90;;;;;;5042634;28;20220;-76
2024/01/09 04:58:22;;;;;;;5.20;3.73;;;-2.90;99.90;;;;;;5041836;28;20626;-78
2024/01/09 05:00:47;;;;;;;4.80;3.13;;;-2.90;99.90;;;;;;5058176;28;20671;-78
2024/01/09 05:03:13;;;;;;;4.47;3.50;;;-2.90;99.90;;;;;;5053866;28;20172;-78
2024/01/09 05:05:39;;;;;;;4.88;3.67;;;-2.90;99.90;;;;;;5071667;28;20214;-78
2024/01/09 05:08:05;;;;;;;4.30;3.60;;;-2.90;99.90;;;;;;5063545;28;20227;-78
2024/01/09 05:10:31;;;;;;;5.50;3.60;;;-3.00;99.90;;;;;;5054556;28;20194;-78
2024/01/09 05:12:57;;;;;;;6.00;3.60;;;-3.00;99.90;;;;;;5052709;28;20674;-77
2024/01/09 05:15:23;;;;;;;3.55;3.22;;;-3.00;99.90;;;;;;5015104;28;20584;-78
2024/01/09 05:17:49;;;;;;;4.53;3.00;;;-3.00;99.90;;;;;;5014036;28;20212;-78
2024/01/09 05:20:15;;;;;;;6.63;3.90;;;-3.00;99.90;;;;;;5014556;28;20650;-78
2024/01/09 05:22:40;;;;;;;3.77;2.87;;;-3.00;99.90;;;;;;5032471;28;20213;-78
2024/01/09 05:25:09;;;;;;;6.83;4.07;;;-3.00;99.90;;;;;;5014361;28;20271;-78
2024/01/09 05:27:35;;;;;;;3.97;3.33;;;-3.00;99.90;;;;;;5014447;28;20190;-78
2024/01/09 05:30:00;;;;;;;7.00;3.60;;;-3.00;99.90;;;;;;5013621;28;20192;-79
2024/01/09 05:32:26;;;;;;;6.32;4.00;;;-3.10;99.90;;;;;;5014028;28;20692;-81
2024/01/09 05:34:52;;;;;;;5.63;4.00;;;-3.10;99.90;;;;;;5032191;28;20629;-78
2024/01/09 05:37:18;;;;;;;6.90;4.00;;;-3.10;99.90;;;;;;5035148;28;20756;-78
2024/01/09 05:39:47;;;;;;;5.33;3.97;;;-3.10;99.90;;;;;;4997322;28;20217;-78
2024/01/09 05:42:12;;;;;;;6.03;4.13;;;-3.10;99.90;;;;;;5025745;28;20584;-78
2024/01/09 05:44:39;;;;;;;7.40;4.50;;;-3.10;99.90;;;;;;5033652;28;20176;-78
2024/01/09 05:47:05;;;;;;;4.78;4.18;;;-3.10;99.90;;;;;;5033630;28;20304;-78
2024/01/09 05:49:31;;;;;;;7.67;3.83;;;-3.10;99.90;;;;;;5047024;28;20257;-78
2024/01/09 05:51:56;;;;;;;6.30;4.70;;;-3.10;99.90;;;;;;5021508;28;20606;-77
2024/01/09 05:54:22;;;;;;;8.47;4.60;;;-3.10;99.90;;;;;;5029112;28;20205;-78
2024/01/09 05:56:48;;;;;;;10.25;4.30;;;-3.20;99.90;;;;;;5033010;28;20243;-78
2024/01/09 05:59:15;;;;;;;6.45;3.85;;;-3.20;99.90;;;;;;5031479;28;20176;-78
2024/01/09 06:01:42;;;;;;;5.68;3.72;;;-3.20;99.90;;;;;;5017919;28;20571;-78
2024/01/09 06:04:08;;;;;;;6.78;4.38;;;-3.20;99.90;;;;;;5015180;28;20575;-78
2024/01/09 06:06:33;;;;;;;6.93;4.07;;;-3.20;99.90;;;;;;5045894;28;20190;-78
2024/01/09 06:08:59;;;;;;;7.00;3.93;;;-3.20;99.90;;;;;;5016438;28;20169;-78
2024/01/09 06:11:26;;;;;;;5.97;4.10;;;-3.20;99.90;;;;;;5033359;28;20180;-78
2024/01/09 06:13:53;;;;;;;5.38;4.53;;;-3.20;99.90;;;;;;5037163;28;20188;-78
2024/01/09 06:16:19;;;;;;;7.50;4.70;;;-3.20;99.90;;;;;;5033307;28;20683;-78
2024/01/09 06:18:45;;;;;;;8.37;5.00;;;-3.20;99.90;;;;;;5033124;28;20184;-78
2024/01/09 06:21:10;;;;;;;6.07;4.50;;;-3.30;99.90;;;;;;5050835;28;20670;-78
2024/01/09 06:23:36;;;;;;;7.33;4.90;;;-3.20;99.90;;;;;;5033336;28;20555;-78
2024/01/09 06:26:02;;;;;;;5.63;4.20;;;-3.30;99.90;;;;;;5016583;28;20254;-78
2024/01/09 06:28:27;;;;;;;7.10;4.43;;;-3.30;99.90;;;;;;5050522;28;20177;-78
2024/01/09 06:30:53;;;;;;;7.60;4.03;;;-3.30;99.90;;;;;;5024650;28;20200;-78
2024/01/09 06:33:19;;;;;;;8.33;4.80;;;-3.30;99.90;;;;;;5050785;28;20234;-78
2024/01/09 06:35:44;;;;;;;6.37;4.23;;;-3.30;99.90;;;;;;5033042;28;20204;-78
2024/01/09 06:38:10;;;;;;;6.00;3.90;;;-3.30;99.90;;;;;;5047534;28;20204;-78
2024/01/09 06:40:36;;;;;;;5.43;3.97;;;-3.30;99.90;;;;;;5013122;28;20209;-77
2024/01/09 06:43:01;;;;;;;5.00;4.40;;;-3.30;99.90;;;;;;5012901;28;20227;-78
2024/01/09 06:45:27;;;;;;;6.90;4.90;;;-3.30;99.90;;;;;;5012714;28;20723;-78
2024/01/09 06:47:53;;;;;;;8.03;4.97;;;-3.30;99.90;;;;;;5012470;28;20544;-78
2024/01/09 06:50:18;;;;;;;5.63;4.40;;;-3.30;99.90;;;;;;5013912;28;20562;-78
2024/01/09 06:52:44;;;;;;;4.50;3.83;;;-3.30;99.90;;;;;;5049471;28;20177;-78
2024/01/09 06:55:10;;;;;;;6.53;4.22;;;-3.30;99.90;;;;;;5016129;28;20275;-79
2024/01/09 06:57:36;;;;;;;5.30;4.30;;;-3.30;99.90;;;;;;4996367;28;20329;-78
2024/01/09 07:00:02;;;;;;;4.93;3.50;;;-3.30;99.90;;;;;;5044666;28;20204;-78
2024/01/09 07:02:27;;;;;;;7.10;4.88;;;-3.30;99.90;;;;;;5032209;28;20265;-78
2024/01/09 07:04:53;;;;;;;6.83;4.43;;;-3.30;99.90;;;;;;5032451;28;20181;-79
2024/01/09 07:07:19;;;;;;;5.57;3.20;;;-3.30;99.90;;;;;;5032479;28;20189;-79
2024/01/09 07:09:45;;;;;;;5.97;4.43;;;-3.30;99.90;;;;;;5032074;28;21063;-78
2024/01/09 07:12:13;;;;;;;8.60;4.50;;;-3.30;99.90;;;;;;5050176;28;20595;-78
2024/01/09 07:14:39;;;;;;;4.53;3.10;;;-3.30;99.90;;;;;;5041291;28;20705;-78
2024/01/09 07:17:04;;;;;;;5.90;3.67;;;-3.30;99.90;;;;;;5048177;28;20299;-77
2024/01/09 07:19:30;;;;;;;5.47;4.17;;;-3.30;99.90;;;;;;5042897;28;20961;-78
2024/01/09 07:21:57;;;;;;;4.65;3.88;;;-3.30;99.90;;;;;;5050054;28;20788;-78
2024/01/09 07:24:22;;;;;;;6.40;4.05;;;-3.30;99.90;;;;;;5047520;28;20283;-77
2024/01/09 07:26:48;;;;;;;6.17;4.33;;;-3.30;99.90;;;;;;5015319;28;20279;-77
2024/01/09 07:29:16;;;;;;;4.97;3.23;;;-3.30;99.90;;;;;;5024433;28;20693;-77
2024/01/09 07:31:43;;;;;;;4.78;4.25;;;-3.30;99.90;;;;;;5042833;28;20185;-78
2024/01/09 07:34:08;;;;;;;4.80;3.60;;;-3.30;99.90;;;;;;5049870;28;20697;-77
2024/01/09 07:36:34;;;;;;;5.90;4.10;;;-3.30;99.90;;;;;;5023410;28;20281;-77
2024/01/09 07:39:00;;;;;;;6.63;4.32;;;-3.30;99.90;;;;;;5026055;28;20954;-77
2024/01/09 07:41:26;;;;;;;5.40;4.13;;;-3.30;99.90;;;;;;5055418;28;20199;-78
2024/01/09 07:43:53;;;;;;;8.00;4.30;;;-3.30;99.90;;;;;;5051303;28;20199;-77
2024/01/09 07:46:19;;;;;;;6.45;4.13;;;-3.30;99.90;;;;;;5034837;28;20827;-78
2024/01/09 07:48:44;;;;;;;4.67;3.50;;;-3.30;99.90;;;;;;5062700;28;20181;-78
2024/01/09 07:51:10;;;;;;;6.67;4.57;;;-3.30;99.90;;;;;;5043711;28;20173;-78
2024/01/09 07:53:36;;;;;;;5.70;4.00;;;-3.30;99.90;;;;;;5035249;28;20587;-79
2024/01/09 07:56:02;;;;;;;6.30;4.70;;;-3.30;99.90;;;;;;5051285;28;20191;-79
2024/01/09 07:58:28;;;;;;;6.90;4.73;;;-3.20;99.90;;;;;;5063382;28;20169;-78
2024/01/09 08:00:54;;;;;;;5.77;3.87;;;-3.30;99.90;;;;;;5043952;28;20635;-79
2024/01/09 08:03:20;;;;;;;6.10;3.97;;;-3.20;99.90;;;;;;5032027;28;20575;-78
2024/01/09 08:05:46;;;;;;;7.45;4.40;;;-3.20;99.90;;;;;;5049134;28;20634;-78
2024/01/09 08:08:12;;;;;;;6.33;3.77;;;-3.20;99.90;;;;;;5067793;28;20224;-79
2024/01/09 08:10:38;;;;;;;6.03;3.55;;;-3.20;99.90;;;;;;5052767;28;20225;-79
2024/01/09 08:13:04;;;;;;;7.90;4.50;;;-3.20;99.90;;;;;;5061859;28;20271;-79
2024/01/09 08:15:29;;;;;;;6.10;4.00;;;-3.10;99.90;;;;;;5052085;28;20185;-78
2024/01/09 08:17:55;;;;;;;8.00;4.30;;;-3.10;99.90;;;;;;5069791;28;20621;-79
2024/01/09 08:20:21;;;;;;;5.82;4.30;;;-3.10;99.90;;;;;;5044120;28;20254;-79
2024/01/09 08:22:48;;;;;;;4.90;3.63;;;-3.10;99.90;;;;;;5051545;28;20184;-77
2024/01/09 08:25:14;;;;;;;6.53;4.20;;;-3.00;99.90;;;;;;5061426;28;20267;-79
2024/01/09 08:27:40;;;;;;;5.20;4.30;;;-3.00;99.90;;;;;;5051513;28;20286;-78
2024/01/09 08:30:08;;;;;;;6.80;4.88;;;-3.00;99.90;;;;;;5053606;28;20251;-78
2024/01/09 08:32:57;;;;;;;6.55;5.38;;;-3.00;99.90;;;;;;5063347;28;20177;-79
2024/01/09 08:35:23;;;;;;;6.68;3.70;;;-2.90;99.90;;;;;;5007380;28;20272;-78
2024/01/09 08:37:49;;;;;;;7.37;4.60;;;-2.90;99.90;;;;;;5041606;28;20282;-79
2024/01/09 08:40:15;;;;;;;6.87;4.03;;;-2.80;99.90;;;;;;5068411;28;20270;-79
2024/01/09 08:42:40;;;;;;;7.60;4.20;;;-2.80;99.90;;;;;;5043445;28;20192;-79
2024/01/09 08:45:08;;;;;;;5.23;4.00;;;-2.80;99.90;;;;;;5065921;28;20590;-79
2024/01/09 08:47:34;;;;;;;5.78;3.85;;;-2.80;99.90;;;;;;5028079;28;20282;-78
2024/01/09 08:50:01;;;;;;;8.85;4.70;;;-2.70;99.90;;;;;;5060752;28;20180;-78
2024/01/09 08:52:26;;;;;;;7.15;3.83;;;-2.70;99.90;;;;;;5064441;28;20241;-78
2024/01/09 08:54:55;;;;;;;11.93;5.40;;;-2.60;99.90;;;;;;5046228;28;20188;-78
2024/01/09 08:57:21;;;;;;;6.25;4.50;;;-2.60;99.90;;;;;;5051471;28;20212;-78
2024/01/09 08:59:48;;;;;;;7.60;5.00;;;-2.60;99.90;;;;;;5050373;28;20204;-78
2024/01/09 09:02:14;;;;;;;5.63;4.32;;;-2.50;99.90;;;;;;5064352;28;21125;-78
2024/01/09 09:04:40;;;;;;;6.78;4.20;;;-2.50;99.90;;;;;;5050942;28;20237;-78
2024/01/09 09:07:06;;;;;;;5.70;4.43;;;-2.40;99.90;;;;;;5064105;28;20595;-78
2024/01/09 09:09:34;;;;;;;7.10;4.90;;;-2.40;99.90;;;;;;5053753;28;20169;-79
2024/01/09 09:12:01;;;;;;;6.90;4.93;;;-2.30;99.90;;;;;;5029542;28;20595;-78
2024/01/09 09:14:27;;;;;;;6.47;4.38;;;-2.30;99.90;;;;;;5072005;28;20642;-78
2024/01/09 09:16:53;;;;;;;6.97;5.30;;;-2.30;99.90;;;;;;5054523;28;20199;-79
2024/01/09 09:19:22;;;;;;;6.97;4.43;;;-2.20;99.90;;;;;;5053937;28;20168;-79
2024/01/09 09:21:50;;;;;;;6.68;5.18;;;-2.20;99.90;;;;;;5019095;28;20304;-78
2024/01/09 09:24:16;;;;;;;7.43;4.88;;;-2.10;99.90;;;;;;5069014;28;20187;-79
2024/01/09 09:26:42;;;;;;;6.78;4.70;;;-2.10;99.90;;;;;;5063646;28;20196;-78
2024/01/09 09:29:09;;;;;;;5.93;4.63;;;-2.00;99.90;;;;;;5052289;28;20175;-79
2024/01/09 09:31:35;;;;;;;8.88;5.90;;;-2.00;99.90;;;;;;5053811;28;20621;-79
2024/01/09 09:34:01;;;;;;;7.63;5.20;;;-1.90;99.90;;;;;;5045353;28;20212;-79
2024/01/09 09:36:26;;;;;;;5.17;4.03;;;-1.90;99.90;;;;;;5055620;28;20621;-78
2024/01/09 09:38:53;;;;;;;6.80;4.33;;;-1.80;99.90;;;;;;5053203;28;20180;-78
2024/01/09 09:41:22;;;;;;;8.25;4.65;;;-1.80;99.90;;;;;;5045038;28;20741;-78
2024/01/09 09:43:56;;;;;;;6.85;4.78;;;-1.80;99.90;;;;;;5047259;28;20275;-79
2024/01/09 09:46:26;;;;;;;8.15;4.85;;;-1.70;99.90;;;;;;5020198;28;20215;-79
2024/01/09 09:48:54;;;;;;;6.70;3.85;;;-1.60;99.90;;;;;;5031330;28;20182;-79
2024/01/09 09:51:21;;;;;;;9.07;5.95;;;-1.60;99.90;;;;;;5050669;28;20182;-78
2024/01/09 09:53:47;;;;;;;6.30;4.93;;;-1.50;99.90;;;;;;5031044;28;20179;-79
2024/01/09 09:56:16;;;;;;;6.43;4.57;;;-1.50;99.90;;;;;;5060335;28;20177;-79
2024/01/09 09:58:42;;;;;;;9.43;3.90;;;-1.40;99.90;;;;;;5027663;28;20180;-79
2024/01/09 10:01:10;;;;;;;5.50;4.57;;;-1.40;99.90;;;;;;5071452;28;20208;-79
2024/01/09 10:03:42;;;;;;;6.20;4.57;;;-1.30;99.90;;;;;;5067738;28;20690;-79
2024/01/09 10:06:11;;;;;;;7.47;5.20;;;-1.30;99.90;;;;;;5052843;28;20179;-78
2024/01/09 10:08:38;;;;;;;6.75;4.95;;;-1.20;99.90;;;;;;5035673;28;20173;-78
2024/01/09 10:11:04;;;;;;;7.50;4.75;;;-1.20;99.90;;;;;;5052358;28;20184;-79
2024/01/09 10:13:30;;;;;;;6.78;4.82;;;-1.10;99.90;;;;;;5020046;28;20204;-80
2024/01/09 10:15:57;;;;;;;9.40;5.40;;;-1.00;99.90;;;;;;5036031;28;20216;-79
2024/01/09 10:18:22;;;;;;;7.03;6.00;;;-1.00;99.90;;;;;;5051815;28;20211;-78
2024/01/09 10:20:48;;;;;;;6.90;4.43;;;-0.90;99.90;;;;;;5035885;28;20231;-78
2024/01/09 10:23:14;;;;;;;8.23;5.00;;;-0.90;99.90;;;;;;5052838;28;20601;-79
2024/01/09 10:25:40;;;;;;;11.70;4.50;;;-0.80;99.90;;;;;;5044359;28;20180;-78
2024/01/09 10:28:08;;;;;;;7.10;4.70;;;-0.80;99.90;;;;;;5051944;28;20192;-78
2024/01/09 10:30:37;;;;;;;7.20;4.68;;;-0.70;99.90;;;;;;5048684;28;20631;-78
2024/01/09 10:33:10;;;;;;;6.10;5.10;;;-0.70;99.90;;;;;;5049360;28;20317;-78
2024/01/09 10:35:37;;;;;;;7.28;4.45;;;-0.70;99.90;;;;;;5023406;28;20180;-78
2024/01/09 10:38:02;;;;;;;5.50;3.55;;;-0.60;99.90;;;;;;5037914;28;20235;-78
2024/01/09 10:40:28;;;;;;;7.13;4.57;;;-0.60;99.90;;;;;;5054001;28;20200;-78
2024/01/09 10:42:54;;;;;;;5.65;3.65;;;-0.50;99.90;;;;;;5031188;28;20632;-78
2024/01/09 10:45:24;;;;;;;6.30;4.05;;;-0.40;99.90;;;;;;5049949;28;20176;-78
2024/01/09 10:47:56;;;;;;;5.68;4.13;;;-0.40;99.90;;;;;;5046178;28;20208;-78
2024/01/09 10:50:22;;;;;;;5.30;3.67;;;-0.30;99.90;;;;;;5040143;28;20494;-79
2024/01/09 10:52:48;;;;;;;5.68;3.78;;;-0.20;99.90;;;;;;5057607;28;20546;-80
2024/01/09 10:55:18;;;;;;;5.97;3.77;;;-0.20;99.90;;;;;;5043744;28;20173;-78
2024/01/09 10:57:50;;;;;;;7.50;4.32;;;-0.10;99.90;;;;;;5070365;28;20618;-78
2024/01/09 11:00:16;;;;;;;7.03;4.13;;;-0.10;99.90;;;;;;5061948;28;20584;-78
2024/01/09 11:02:42;;;;;;;5.05;3.60;;;0.00;99.90;;;;;;5069633;28;20348;-79
2024/01/09 11:05:13;;;;;;;5.57;3.90;;;0.00;99.90;;;;;;5048866;28;20204;-79
2024/01/09 11:07:43;;;;;;;4.18;3.10;;;0.10;99.90;;;;;;5040190;28;20603;-79
2024/01/09 11:10:17;;;;;;;5.40;3.20;;;0.10;99.90;;;;;;5031807;28;20188;-78
2024/01/09 11:12:47;;;;;;;5.50;3.55;;;0.20;99.90;;;;;;5044975;28;20183;-79
2024/01/09 11:15:16;;;;;;;5.00;3.45;;;0.20;99.90;;;;;;5045073;28;20189;-78
2024/01/09 11:17:46;;;;;;;5.88;3.55;;;0.30;99.90;;;;;;5065194;28;20204;-79
2024/01/09 11:20:14;;;;;;;5.05;4.10;;;0.40;99.90;;;;;;5065234;28;20571;-79
2024/01/09 11:22:40;;;;;;;5.07;3.67;;;0.40;99.90;;;;;;5062542;28;20184;-80
2024/01/09 11:25:15;;;;;;;5.47;3.67;;;0.40;99.90;;;;;;5070050;28;20179;-79
2024/01/09 11:27:43;;;;;;;4.93;3.25;;;0.50;99.90;;;;;;5047062;28;20273;-78
2024/01/09 11:30:15;;;;;;;6.22;3.58;;;0.50;99.90;;;;;;5048368;28;20544;-79
2024/01/09 11:32:41;;;;;;;5.50;2.72;;;0.60;99.90;;;;;;5044660;28;20184;-79
2024/01/09 11:35:13;;;;;;;5.13;2.92;;;0.60;99.90;;;;;;5061467;28;20270;-79
2024/01/09 11:37:43;;;;;;;6.80;3.67;;;0.60;99.90;;;;;;5036567;28;20211;-80
2024/01/09 11:40:13;;;;;;;3.03;2.55;;;0.70;99.90;;;;;;5061152;28;20201;-79
2024/01/09 11:42:43;;;;;;;6.55;3.33;;;0.80;99.90;;;;;;5022528;28;20188;-80
2024/01/09 11:45:09;;;;;;;4.65;3.30;;;0.80;99.90;;;;;;5035382;28;20181;-77
2024/01/09 11:47:39;;;;;;;4.85;3.40;;;0.90;99.90;;;;;;5014979;28;20265;-80
2024/01/09 11:50:10;;;;;;;4.43;2.58;;;0.90;99.90;;;;;;5032796;28;20217;-78
2024/01/09 11:52:37;;;;;;;6.05;3.70;;;1.00;99.90;;;;;;5017185;28;20271;-78
2024/01/09 11:55:04;;;;;;;4.90;2.67;;;1.00;99.90;;;;;;5046339;28;20223;-77
2024/01/09 11:57:30;;;;;;;3.97;2.80;;;1.10;99.90;;;;;;5004298;28;20202;-77
2024/01/09 11:59:56;;;;;;;3.40;2.07;;;1.10;99.90;;;;;;5044442;28;20687;-78
2024/01/09 12:02:22;;;;;;;4.60;2.60;;;1.20;99.90;;;;;;5015446;28;20640;-78
2024/01/09 12:04:47;;;;;;;3.70;2.88;;;1.20;99.90;;;;;;5033849;28;20233;-77
2024/01/09 12:07:13;;;;;;;4.70;2.90;;;1.30;99.90;;;;;;5035374;28;20347;-77
2024/01/09 12:09:40;;;;;;;4.80;3.27;;;1.30;99.90;;;;;;5014819;28;20182;-78
2024/01/09 12:12:09;;;;;;;5.22;3.25;;;1.30;99.90;;;;;;5042059;28;20189;-77
2024/01/09 12:14:35;;;;;;;5.32;3.03;;;1.40;99.90;;;;;;5018857;28;20668;-77
2024/01/09 12:17:14;;;;;;;4.80;3.03;;;1.50;99.90;;;;;;5033399;28;20289;-78
2024/01/09 12:19:40;;;;;;;5.07;3.25;;;1.50;99.90;;;;;;5026726;28;20184;-77
2024/01/09 12:22:06;;;;;;;10.48;3.33;;;1.50;99.90;;;;;;5035673;28;20180;-77
2024/01/09 12:24:32;;;;;;;3.53;2.30;;;1.60;99.90;;;;;;5035328;28;20181;-76
2024/01/09 12:26:58;;;;;;;4.67;3.00;;;1.60;99.90;;;;;;5047167;28;20217;-77
2024/01/09 12:29:24;;;;;;;6.97;3.00;;;1.60;99.90;;;;;;5021041;28;20253;-76
2024/01/09 12:31:50;;;;;;;3.77;2.90;;;1.70;99.90;;;;;;5045280;28;20259;-77
2024/01/09 12:34:15;;;;;;;3.47;2.40;;;1.70;99.90;;;;;;5027317;28;20182;-76
2024/01/09 12:36:41;;;;;;;4.13;2.47;;;1.80;99.90;;;;;;5034999;28;20200;-77
2024/01/09 12:39:12;;;;;;;4.33;2.70;;;1.80;99.90;;;;;;5039058;28;20191;-76
2024/01/09 12:41:39;;;;;;;5.90;2.63;;;1.90;99.90;;;;;;5051730;28;20208;-77
2024/01/09 12:44:24;;;;;;;3.78;2.40;;;1.90;99.90;;;;;;5006431;28;20177;-76